Time;durP1;ratioP1;P1;durP2;ratioP2;P2;SDS_P1;SDS_P2;PMS_P1;PMS_P2;Temp;Humidity;BMP_temperature;BMP_pressure;BME280_temperature;BME280_humidity;BME280_pressure;Samples;Min_cycle;Max_cycle;Signal;HPM_P1;HPM_P2
2022/10/03 00:01:42;;;;;;;9.93;3.88;;;;;;;10.85;100.00;99496.03;4119697;28;20711;-49
2022/10/03 00:03:53;;;;;;;3.72;3.40;;;;;;;10.90;100.00;99496.19;4103213;28;20240;-49
2022/10/03 00:06:05;;;;;;;13.18;3.85;;;;;;;10.81;100.00;99495.91;4124720;28;20214;-49
2022/10/03 00:08:32;;;;;;;4.80;4.05;;;;;;;10.85;100.00;99501.50;4122909;28;20202;-49
2022/10/03 00:11:01;;;;;;;4.28;3.88;;;;;;;10.87;100.00;99505.94;4122588;28;20233;-49
2022/10/03 00:13:57;;;;;;;16.73;4.85;;;;;;;10.83;100.00;99506.38;4102981;28;20218;-49
2022/10/03 00:16:10;;;;;;;12.00;4.88;;;;;;;10.77;100.00;99510.03;4106227;28;21248;-48
2022/10/03 00:18:20;;;;;;;3.92;3.63;;;;;;;10.88;100.00;99506.53;4091393;28;20404;-49
2022/10/03 00:21:00;;;;;;;4.68;4.38;;;;;;;10.89;100.00;99501.88;4105674;28;20206;-48
2022/10/03 00:23:18;;;;;;;18.10;4.88;;;;;;;10.83;100.00;99509.13;4118728;28;20938;-49
2022/10/03 00:25:27;;;;;;;7.20;4.63;;;;;;;10.77;100.00;99502.88;4119823;28;20606;-49
2022/10/03 00:27:43;;;;;;;4.32;4.03;;;;;;;10.77;100.00;99504.56;4123657;28;20212;-49
2022/10/03 00:29:50;;;;;;;5.28;4.00;;;;;;;10.76;100.00;99512.16;4125438;28;20202;-49
2022/10/03 00:32:04;;;;;;;32.28;5.43;;;;;;;10.55;100.00;99526.28;4117372;28;20215;-48
2022/10/03 00:34:45;;;;;;;123.88;7.60;;;;;;;10.65;100.00;99537.53;4102458;28;20269;-50
2022/10/03 00:37:34;;;;;;;4.43;4.10;;;;;;;10.79;100.00;99531.72;4091399;28;20211;-49
2022/10/03 00:39:44;;;;;;;4.82;4.15;;;;;;;10.68;100.00;99542.59;4117695;28;20207;-50
2022/10/03 00:42:00;;;;;;;3.83;3.45;;;;;;;10.65;100.00;99553.97;4117393;28;20217;-50
2022/10/03 00:44:10;;;;;;;14.80;3.17;;;;;;;10.59;100.00;99560.34;4119698;28;20227;-49
2022/10/03 00:46:30;;;;;;;10.77;3.47;;;;;;;10.67;100.00;99554.59;4126571;28;20206;-49
2022/10/03 00:48:51;;;;;;;16.60;3.47;;;;;;;10.58;100.00;99553.19;4126242;28;20234;-50
2022/10/03 00:51:02;;;;;;;5.50;3.10;;;;;;;10.68;100.00;99559.81;4125020;28;20672;-49
2022/10/03 00:53:18;;;;;;;3.25;3.05;;;;;;;10.76;100.00;99564.19;4118802;28;20237;-50
2022/10/03 00:55:34;;;;;;;4.53;2.70;;;;;;;10.62;100.00;99576.31;4124053;28;20234;-50
2022/10/03 00:57:38;;;;;;;161.95;7.15;;;;;;;10.40;100.00;99575.03;4122866;28;20686;-49
2022/10/03 00:59:47;;;;;;;8.43;2.90;;;;;;;10.34;100.00;99570.47;4111887;28;20319;-49
2022/10/03 01:01:49;;;;;;;5.28;2.92;;;;;;;10.48;100.00;99574.75;4120636;28;20244;-48
2022/10/03 01:04:09;;;;;;;27.83;3.63;;;;;;;10.29;100.00;99571.09;4116189;28;20543;-50
2022/10/03 01:06:29;;;;;;;8.48;3.22;;;;;;;10.29;100.00;99571.09;4123383;28;20237;-49
2022/10/03 01:08:39;;;;;;;3.15;2.90;;;;;;;10.50;100.00;99564.44;4122440;28;20206;-49
2022/10/03 01:10:43;;;;;;;2.80;2.60;;;;;;;10.45;100.00;99564.25;4118641;28;20215;-49
2022/10/03 01:13:27;;;;;;;7.60;2.78;;;;;;;10.24;100.00;99564.63;4114409;28;20225;-50
2022/10/03 01:15:51;;;;;;;3.28;3.08;;;;;;;10.39;100.00;99566.00;4104073;28;20213;-49
2022/10/03 01:17:59;;;;;;;12.73;3.15;;;;;;;10.13;100.00;99573.56;4123306;28;20206;-49
2022/10/03 01:20:19;;;;;;;100.50;5.82;;;;;;;10.03;100.00;99573.19;4118958;28;20210;-49
2022/10/03 01:22:59;;;;;;;3.15;2.72;;;;;;;10.12;100.00;99569.16;4117324;28;20206;-49
2022/10/03 01:25:25;;;;;;;2.45;2.33;;;;;;;10.37;100.00;99564.53;4105703;28;20244;-48
2022/10/03 01:30:21;;;;;;;3.83;3.20;;;;;;;10.27;100.00;99578.72;4118104;28;20207;-49
2022/10/03 01:32:39;;;;;;;3.30;3.05;;;;;;;10.24;100.00;99579.16;4102136;28;20241;-49
2022/10/03 01:34:45;;;;;;;22.17;3.05;;;;;;;9.96;100.00;99575.13;4120257;28;20341;-49
2022/10/03 01:37:08;;;;;;;26.83;3.88;;;;;;;9.62;100.00;99572.81;4118564;28;20203;-49
2022/10/03 01:39:31;;;;;;;24.50;3.30;;;;;;;9.63;100.00;99569.84;4123815;28;20577;-48
2022/10/03 01:42:08;;;;;;;93.38;6.25;;;;;;;9.68;100.00;99572.75;4112007;28;20217;-49
2022/10/03 01:44:30;;;;;;;3.90;3.60;;;;;;;9.84;100.00;99566.78;4122556;28;20316;-49
2022/10/03 01:46:38;;;;;;;3.33;3.03;;;;;;;9.99;100.00;99571.94;4110204;28;20298;-49
2022/10/03 01:48:54;;;;;;;2.83;2.63;;;;;;;10.04;100.00;99577.63;4120971;28;20239;-49
2022/10/03 01:51:12;;;;;;;3.28;3.08;;;;;;;10.13;100.00;99571.66;4121023;28;20298;-49
2022/10/03 01:53:40;;;;;;;26.10;2.72;;;;;;;10.17;100.00;99569.31;4127193;28;20222;-49
2022/10/03 01:56:21;;;;;;;1.95;1.85;;;;;;;10.13;100.00;99571.66;4120996;28;20242;-49
2022/10/03 01:58:40;;;;;;;2.90;2.45;;;;;;;10.21;100.00;99579.59;4102504;28;20610;-49
2022/10/03 02:00:47;;;;;;;2.40;2.20;;;;;;;10.32;100.00;99569.84;4122714;28;20264;-49
2022/10/03 02:03:03;;;;;;;3.45;2.78;;;;;;;10.20;100.00;99577.06;4107178;28;20203;-49
2022/10/03 02:05:20;;;;;;;2.63;2.42;;;;;;;10.14;100.00;99569.78;4126393;28;20265;-49
2022/10/03 02:07:28;;;;;;;2.50;2.30;;;;;;;10.16;100.00;99575.84;4128087;28;20252;-49
2022/10/03 02:09:49;;;;;;;2.63;2.42;;;;;;;10.35;100.00;99566.66;4123726;28;20213;-50
2022/10/03 02:11:58;;;;;;;2.13;2.03;;;;;;;10.32;100.00;99572.56;4127407;28;20208;-49
2022/10/03 02:14:24;;;;;;;2.90;2.70;;;;;;;10.30;100.00;99564.59;4124333;28;20230;-50
2022/10/03 02:16:57;;;;;;;2.08;1.98;;;;;;;10.31;100.00;99568.16;4121934;28;20200;-50
2022/10/03 02:19:44;;;;;;;2.60;2.47;;;;;;;10.26;100.00;99560.63;4125951;28;20248;-49
2022/10/03 02:21:51;;;;;;;6.80;3.20;;;;;;;10.29;100.00;99565.63;4116747;28;20760;-48
2022/10/03 02:24:11;;;;;;;4.50;2.80;;;;;;;10.04;100.00;99566.69;4106318;28;20305;-48
2022/10/03 02:26:34;;;;;;;3.55;2.78;;;;;;;10.00;100.00;99560.78;4121902;28;20915;-49
2022/10/03 02:28:35;;;;;;;8.05;2.60;;;;;;;10.00;100.00;99555.31;4127124;28;20240;-49
2022/10/03 02:30:56;;;;;;;29.13;3.42;;;;;;;10.24;100.00;99561.91;4119330;28;20309;-50
2022/10/03 02:33:00;;;;;;;65.00;4.55;;;;;;;10.12;100.00;99552.72;4117261;28;20233;-49
2022/10/03 02:35:20;;;;;;;5.13;1.90;;;;;;;10.19;100.00;99554.38;4121054;28;20198;-49
2022/10/03 02:37:48;;;;;;;2.03;1.92;;;;;;;9.75;100.00;99556.34;4118455;28;20324;-49
2022/10/03 02:40:18;;;;;;;5.47;2.05;;;;;;;9.66;100.00;99541.22;4121095;28;20211;-49
2022/10/03 02:42:51;;;;;;;2.40;2.20;;;;;;;9.84;100.00;99549.53;4117983;28;20203;-49
2022/10/03 02:44:53;;;;;;;1.80;1.70;;;;;;;9.86;100.00;99541.94;4135549;28;20246;-49
2022/10/03 02:47:19;;;;;;;1.80;1.70;;;;;;;9.97;100.00;99552.19;4124690;28;20202;-48
2022/10/03 02:50:08;;;;;;;2.33;1.98;;;;;;;9.91;100.00;99550.34;4126454;28;20198;-49
2022/10/03 02:52:13;;;;;;;8.95;1.85;;;;;;;9.94;100.00;99539.78;4076605;28;20213;-49
2022/10/03 02:54:39;;;;;;;2.83;1.42;;;;;;;9.93;100.00;99538.13;4127836;28;20261;-48
2022/10/03 02:56:50;;;;;;;1.77;1.67;;;;;;;9.96;100.00;99542.31;4122120;28;20218;-49
2022/10/03 02:59:29;;;;;;;1.30;1.20;;;;;;;9.89;100.00;99539.59;4135496;28;20237;-49
2022/10/03 03:01:52;;;;;;;1.20;1.20;;;;;;;9.91;100.00;99539.41;4123303;28;20241;-48
2022/10/03 03:04:02;;;;;;;1.13;1.13;;;;;;;9.92;100.00;99547.38;4124093;28;20233;-50
2022/10/03 03:06:31;;;;;;;1.48;1.38;;;;;;;9.89;100.00;99552.47;4121315;28;20288;-49
2022/10/03 03:08:53;;;;;;;5.75;1.77;;;;;;;9.86;100.00;99548.25;4107902;28;20221;-50
2022/10/03 03:11:10;;;;;;;1.63;1.52;;;;;;;9.86;100.00;99558.34;4117991;28;20238;-50
2022/10/03 03:13:25;;;;;;;1.90;1.80;;;;;;;9.84;100.00;99557.75;4118497;28;20731;-49
2022/10/03 03:15:56;;;;;;;1.70;1.60;;;;;;;9.94;100.00;99569.06;4121960;28;20208;-49
2022/10/03 03:18:10;;;;;;;1.77;1.67;;;;;;;9.87;100.00;99576.47;4126028;28;20253;-50
2022/10/03 03:20:34;;;;;;;1.80;1.70;;;;;;;9.85;100.00;99573.94;4121439;28;20699;-49
2022/10/03 03:22:47;;;;;;;1.95;1.85;;;;;;;9.90;100.00;99576.00;4124494;28;20245;-49
2022/10/03 03:25:01;;;;;;;1.80;1.55;;;;;;;9.83;100.00;99575.22;4118213;28;20292;-49
2022/10/03 03:27:09;;;;;;;1.83;1.73;;;;;;;9.88;100.00;99583.59;4124104;28;20220;-50
2022/10/03 03:29:56;;;;;;;2.30;2.10;;;;;;;9.74;100.00;99585.56;4124380;28;20202;-49
2022/10/03 03:32:03;;;;;;;2.00;1.90;;;;;;;9.80;100.00;99586.56;4124090;28;20610;-50
2022/10/03 03:34:26;;;;;;;2.45;2.22;;;;;;;9.85;100.00;99584.00;4107869;28;20244;-50
2022/10/03 03:36:43;;;;;;;5.00;2.55;;;;;;;9.80;100.00;99586.56;4122885;28;20202;-49
2022/10/03 03:38:53;;;;;;;3.42;2.50;;;;;;;9.79;100.00;99590.34;4122692;28;20621;-49
2022/10/03 03:41:03;;;;;;;3.75;2.17;;;;;;;9.79;100.00;99584.88;4119046;28;20317;-49
2022/10/03 03:43:43;;;;;;;58.55;3.58;;;;;;;9.63;100.00;99590.88;4117027;28;20513;-50
2022/10/03 03:46:09;;;;;;;5.03;2.28;;;;;;;9.55;100.00;99588.41;4115127;28;20504;-49
2022/10/03 03:48:21;;;;;;;2.22;2.08;;;;;;;9.56;100.00;99584.59;4125232;28;20268;-49
2022/10/03 03:50:47;;;;;;;2.78;2.40;;;;;;;9.42;100.00;99588.44;4121210;28;20241;-49
2022/10/03 03:53:13;;;;;;;2.33;2.22;;;;;;;9.49;100.00;99597.47;4118626;28;20218;-49
2022/10/03 03:55:39;;;;;;;4.68;2.28;;;;;;;9.55;100.00;99593.84;4124694;28;20289;-49
2022/10/03 03:57:48;;;;;;;4.00;2.58;;;;;;;9.43;100.00;99590.94;4124928;28;20294;-49
2022/10/03 04:00:20;;;;;;;2.20;2.10;;;;;;;9.42;100.00;99597.47;4118680;28;20206;-49
2022/10/03 04:02:52;;;;;;;2.50;2.30;;;;;;;9.51;100.00;99603.53;4118083;28;20207;-49
2022/10/03 04:05:19;;;;;;;1.98;1.88;;;;;;;9.45;100.00;99593.47;4125222;28;20245;-48
2022/10/03 04:07:23;;;;;;;4.72;2.75;;;;;;;9.46;100.00;99589.69;4123485;28;20298;-48
2022/10/03 04:09:58;;;;;;;2.80;2.13;;;;;;;9.38;100.00;99592.66;4120707;28;20294;-49
2022/10/03 04:12:24;;;;;;;2.78;2.67;;;;;;;9.35;100.00;99593.09;4120227;28;20308;-49
2022/10/03 04:14:32;;;;;;;10.75;2.50;;;;;;;9.42;100.00;99593.91;4122218;28;20234;-48
2022/10/03 04:19:27;;;;;;;2.40;2.30;;;;;;;9.35;100.00;99593.09;4117803;28;20210;-49
2022/10/03 04:21:55;;;;;;;2.47;2.38;;;;;;;9.35;100.00;99593.94;4120250;28;20917;-48
2022/10/03 04:24:03;;;;;;;2.08;1.98;;;;;;;9.42;100.00;99593.91;4118196;28;20308;-48
2022/10/03 04:26:30;;;;;;;1.55;1.45;;;;;;;9.39;100.00;99594.34;4117846;28;20217;-48
2022/10/03 04:28:44;;;;;;;13.23;2.78;;;;;;;9.35;100.00;99598.56;4125801;28;20676;-49
2022/10/03 04:31:15;;;;;;;14.45;2.65;;;;;;;9.34;100.00;99594.16;4124241;28;20787;-48
2022/10/03 04:33:32;;;;;;;2.42;2.22;;;;;;;9.42;100.00;99594.72;4119695;28;20234;-48
2022/10/03 04:35:50;;;;;;;8.93;2.88;;;;;;;9.23;100.00;99594.81;4116786;28;20664;-49
2022/10/03 04:38:25;;;;;;;7.22;2.67;;;;;;;9.05;100.00;99597.38;4120013;28;20215;-48
2022/10/03 04:40:27;;;;;;;4.05;1.98;;;;;;;9.23;100.00;99600.28;4119066;28;20229;-49
2022/10/03 04:42:46;;;;;;;2.30;2.20;;;;;;;9.17;100.00;99598.41;4120292;28;20202;-49
2022/10/03 04:45:09;;;;;;;3.38;1.80;;;;;;;9.22;100.00;99593.97;4122038;28;20595;-49
2022/10/03 04:47:33;;;;;;;2.17;1.75;;;;;;;9.35;100.00;99604.84;4124149;28;20633;-48
2022/10/03 04:50:22;;;;;;;10.65;1.88;;;;;;;8.98;100.00;99607.47;4120032;28;20257;-49
2022/10/03 04:52:34;;;;;;;12.38;1.48;;;;;;;8.74;100.00;99610.91;4113551;28;20249;-50
2022/10/03 04:55:06;;;;;;;14.00;2.30;;;;;;;8.80;100.00;99615.47;4123064;28;20225;-48
2022/10/03 04:57:20;;;;;;;2.20;2.00;;;;;;;8.81;100.00;99611.72;4114095;28;20205;-49
2022/10/03 04:59:41;;;;;;;6.95;2.20;;;;;;;8.96;100.00;99625.97;4120876;28;20695;-49
2022/10/03 05:02:06;;;;;;;10.35;2.13;;;;;;;8.76;100.00;99619.72;4123467;28;20217;-50
2022/10/03 05:04:35;;;;;;;26.33;2.25;;;;;;;8.93;100.00;99626.38;4117529;28;20234;-49
2022/10/03 05:06:55;;;;;;;1.60;1.50;;;;;;;8.99;100.00;99620.94;4100819;28;20230;-49
2022/10/03 05:09:25;;;;;;;1.85;1.75;;;;;;;9.02;100.00;99625.13;4123135;28;20206;-49
2022/10/03 05:11:33;;;;;;;3.45;3.13;;;;;;;9.02;100.00;99630.59;4119525;28;20211;-49
2022/10/03 05:13:56;;;;;;;68.78;3.08;;;;;;;8.87;100.00;99632.69;4121357;28;20325;-50
2022/10/03 05:16:07;;;;;;;14.50;2.03;;;;;;;8.99;100.00;99631.84;4124915;28;20210;-50
2022/10/03 05:18:23;;;;;;;5.75;1.45;;;;;;;8.89;100.00;99630.59;4124736;28;20269;-49
2022/10/03 05:20:47;;;;;;;28.75;2.38;;;;;;;8.86;100.00;99626.41;4103425;28;20984;-48
2022/10/03 05:22:52;;;;;;;5.75;1.63;;;;;;;8.95;100.00;99633.31;4119101;28;20690;-49
2022/10/03 05:25:02;;;;;;;1.85;1.40;;;;;;;8.97;100.00;99633.09;4114935;28;20206;-49
2022/10/03 05:27:32;;;;;;;1.48;1.40;;;;;;;8.98;100.00;99634.78;4118338;28;20240;-49
2022/10/03 05:29:40;;;;;;;1.40;1.30;;;;;;;9.06;100.00;99637.28;4093238;28;20206;-48
2022/10/03 05:32:03;;;;;;;76.82;3.97;;;;;;;9.04;100.00;99639.41;4108994;28;20216;-49
2022/10/03 05:34:32;;;;;;;1.80;1.70;;;;;;;9.00;100.00;99651.78;4117985;28;20337;-49
2022/10/03 05:37:06;;;;;;;1.77;1.63;;;;;;;8.99;100.00;99650.09;4116496;28;20865;-51
2022/10/03 05:39:22;;;;;;;1.40;1.30;;;;;;;9.02;100.00;99655.16;4124171;28;20293;-51
2022/10/03 05:41:31;;;;;;;3.33;1.17;;;;;;;9.03;100.00;99656.84;4125949;28;20312;-49
2022/10/03 05:43:57;;;;;;;1.40;1.30;;;;;;;9.00;100.00;99665.44;4119011;28;20731;-48
2022/10/03 05:46:35;;;;;;;1.40;1.30;;;;;;;9.03;100.00;99657.66;4125873;28;20236;-49
2022/10/03 05:48:46;;;;;;;15.40;1.73;;;;;;;9.09;100.00;99664.19;4122508;28;20297;-49
2022/10/03 05:51:12;;;;;;;16.27;1.88;;;;;;;8.99;100.00;99669.22;4108900;28;20653;-49
2022/10/03 05:53:35;;;;;;;1.38;1.20;;;;;;;8.94;100.00;99671.75;4127107;28;20284;-50
2022/10/03 05:56:07;;;;;;;2.90;1.45;;;;;;;8.84;100.00;99672.19;4118033;28;20293;-49
2022/10/03 05:58:27;;;;;;;2.22;1.23;;;;;;;8.88;100.00;99678.06;4055946;29;20214;-49
2022/10/03 06:00:40;;;;;;;1.30;1.20;;;;;;;8.93;100.00;99686.44;4117196;28;20300;-49
2022/10/03 06:03:21;;;;;;;142.02;5.55;;;;;;;8.92;100.00;99695.69;4117443;28;20292;-49
2022/10/03 06:05:31;;;;;;;2.75;2.47;;;;;;;8.90;100.00;99693.16;4092112;28;20304;-50
2022/10/03 06:08:11;;;;;;;2.35;2.15;;;;;;;8.91;100.00;99700.31;4120902;28;20728;-49
2022/10/03 06:10:34;;;;;;;1.70;1.60;;;;;;;8.94;100.00;99693.59;4110891;28;20209;-49
2022/10/03 06:12:44;;;;;;;3.45;1.88;;;;;;;8.89;100.00;99701.56;4121658;28;20242;-49
2022/10/03 06:15:11;;;;;;;10.98;1.63;;;;;;;8.91;100.00;99702.19;4119928;28;20778;-49
2022/10/03 06:17:41;;;;;;;2.00;1.90;;;;;;;8.91;100.00;99700.31;4115952;28;20206;-48
2022/10/03 06:19:55;;;;;;;1.95;1.85;;;;;;;8.91;100.00;99707.66;4119795;28;20229;-49
2022/10/03 06:22:20;;;;;;;9.55;2.00;;;;;;;8.82;100.00;99706.19;4120702;28;20209;-48
2022/10/03 06:24:39;;;;;;;1.90;1.80;;;;;;;8.97;100.00;99709.53;4120242;28;20230;-51
2022/10/03 06:26:50;;;;;;;1.88;1.77;;;;;;;8.96;100.00;99700.50;4098067;28;20227;-48
2022/10/03 06:29:10;;;;;;;2.05;1.95;;;;;;;8.98;100.00;99712.06;4120787;28;21888;-49
2022/10/03 06:31:50;;;;;;;2.00;1.90;;;;;;;9.01;100.00;99706.19;4119366;28;20206;-48
2022/10/03 06:33:58;;;;;;;1.70;1.60;;;;;;;9.11;100.00;99705.75;4120397;28;20363;-50
2022/10/03 06:36:15;;;;;;;2.95;2.63;;;;;;;9.07;100.00;99709.94;4117321;28;20665;-49
2022/10/03 06:38:53;;;;;;;23.48;2.45;;;;;;;8.51;100.00;99714.13;4117888;28;20261;-50
2022/10/03 06:41:10;;;;;;;2.20;2.10;;;;;;;8.70;100.00;99719.59;4119377;28;20660;-49
2022/10/03 06:43:15;;;;;;;2.17;1.90;;;;;;;8.81;100.00;99720.91;4114039;28;20226;-50
2022/10/03 06:45:17;;;;;;;82.90;5.00;;;;;;;8.94;100.00;99718.16;4106091;28;20622;-53
2022/10/03 06:47:58;;;;;;;3.83;2.38;;;;;;;8.89;100.00;99712.50;4122840;28;20226;-49
2022/10/03 06:50:45;;;;;;;2.55;2.42;;;;;;;8.85;100.00;99711.22;4122080;28;20206;-49
2022/10/03 06:52:57;;;;;;;5.78;2.67;;;;;;;8.89;100.00;99712.50;4119885;28;20212;-50
2022/10/03 06:55:42;;;;;;;3.97;3.60;;;;;;;8.48;100.00;99715.38;4105824;28;20202;-49
2022/10/03 06:58:32;;;;;;;13.82;4.15;;;;;;;8.57;100.00;99714.16;4121638;28;20634;-48
2022/10/03 07:01:04;;;;;;;4.15;3.55;;;;;;;8.70;100.00;99713.31;4125485;28;20674;-50
2022/10/03 07:03:21;;;;;;;4.00;3.45;;;;;;;8.49;100.00;99716.25;4126850;28;20226;-50
2022/10/03 07:05:45;;;;;;;6.72;3.92;;;;;;;8.70;100.00;99713.31;4133686;28;20268;-48
2022/10/03 07:08:06;;;;;;;6.95;4.00;;;;;;;8.62;100.00;99722.53;4124907;28;20270;-48
2022/10/03 07:10:32;;;;;;;5.25;4.75;;;;;;;8.54;100.00;99713.75;4123134;28;20210;-52
2022/10/03 07:12:53;;;;;;;5.07;4.50;;;;;;;8.76;100.00;99717.94;4120975;28;20203;-48
2022/10/03 07:15:16;;;;;;;6.50;4.50;;;;;;;8.92;100.00;99722.97;4123993;28;20246;-48
2022/10/03 07:17:24;;;;;;;4.25;3.95;;;;;;;8.96;100.00;99724.25;4110576;28;20213;-49
2022/10/03 07:19:47;;;;;;;8.52;4.75;;;;;;;9.06;100.00;99730.13;4117530;28;20324;-49
2022/10/03 07:22:10;;;;;;;8.23;3.75;;;;;;;8.97;100.00;99725.94;4122466;28;20248;-50
2022/10/03 07:24:24;;;;;;;30.10;5.78;;;;;;;8.91;100.00;99721.31;4128001;28;20675;-48
2022/10/03 07:27:23;;;;;;;7.80;4.25;;;;;;;9.10;100.00;99721.31;4108966;28;20218;-50
2022/10/03 07:29:43;;;;;;;4.05;3.65;;;;;;;9.24;100.00;99719.41;4073015;29;20209;-52
2022/10/03 07:32:12;;;;;;;4.38;3.97;;;;;;;9.31;100.00;99720.22;4074897;29;20359;-49
2022/10/03 07:34:48;;;;;;;4.78;4.38;;;;;;;9.40;100.00;99727.97;4097560;28;20608;-49
2022/10/03 07:40:10;;;;;;;3.97;3.67;;;;;;;9.46;100.00;99726.28;4120536;28;20210;-48
2022/10/03 07:42:31;;;;;;;5.57;4.13;;;;;;;9.37;100.00;99727.56;4104516;28;20230;-50
2022/10/03 07:44:58;;;;;;;8.77;3.80;;;;;;;9.18;100.00;99733.91;4125482;28;20288;-48
2022/10/03 07:47:34;;;;;;;4.00;3.67;;;;;;;8.91;100.00;99727.63;4125304;28;20554;-49
2022/10/03 07:49:54;;;;;;;6.38;4.07;;;;;;;8.74;100.00;99730.97;4120376;28;20198;-48
2022/10/03 07:52:28;;;;;;;3.92;3.63;;;;;;;8.88;100.00;99730.75;4116043;23;20288;-58
2022/10/03 07:54:38;;;;;;;4.40;4.03;;;;;;;9.08;100.00;99739.78;4104781;28;20280;-57
2022/10/03 07:56:47;;;;;;;4.95;4.55;;;;;;;9.21;100.00;99728.84;4103624;28;20290;-58
2022/10/03 07:59:10;;;;;;;30.85;4.28;;;;;;;9.27;100.00;99743.53;4106014;28;20209;-58
2022/10/03 08:01:18;;;;;;;4.63;4.00;;;;;;;9.40;100.00;99738.06;4118426;28;20198;-58
2022/10/03 08:03:28;;;;;;;4.20;3.83;;;;;;;9.53;100.00;99752.56;4105934;28;20276;-58
2022/10/03 08:05:48;;;;;;;4.53;4.20;;;;;;;9.62;100.00;99747.69;4106488;28;20629;-58
2022/10/03 08:08:11;;;;;;;41.28;5.28;;;;;;;9.74;100.00;99749.56;4105067;28;20280;-58
2022/10/03 08:10:22;;;;;;;4.40;4.00;;;;;;;9.84;100.00;99746.38;4118019;28;20214;-59
2022/10/03 08:12:51;;;;;;;31.25;4.13;;;;;;;9.65;100.00;99756.31;4106127;28;20584;-59
2022/10/03 08:15:03;;;;;;;6.68;3.60;;;;;;;9.63;100.00;99755.66;4108962;28;20215;-59
2022/10/03 08:17:33;;;;;;;4.38;4.05;;;;;;;9.68;100.00;99750.41;4108351;28;20202;-59
2022/10/03 08:20:06;;;;;;;5.65;4.18;;;;;;;9.82;100.00;99756.69;4105091;28;20261;-59
2022/10/03 08:22:29;;;;;;;15.20;4.10;;;;;;;9.85;100.00;99753.50;4118755;28;20261;-59
2022/10/03 08:25:06;;;;;;;4.47;4.18;;;;;;;9.89;100.00;99743.84;4104154;28;20234;-59
2022/10/03 08:27:27;;;;;;;4.85;4.30;;;;;;;10.04;100.00;99747.16;4105982;28;20233;-57
2022/10/03 08:29:56;;;;;;;11.57;3.85;;;;;;;10.13;100.00;99756.81;4104481;28;20214;-58
2022/10/03 08:32:16;;;;;;;5.50;4.13;;;;;;;10.25;100.00;99755.91;4101306;28;20910;-59
2022/10/03 08:34:43;;;;;;;4.80;4.40;;;;;;;10.30;100.00;99758.00;4104799;28;20223;-58
2022/10/03 08:37:13;;;;;;;4.68;4.38;;;;;;;10.28;100.00;99760.94;4122465;28;20206;-59
2022/10/03 08:39:39;;;;;;;4.70;4.30;;;;;;;10.44;100.00;99754.97;4112777;28;20235;-59
2022/10/03 08:44:12;;;;;;;4.93;4.60;;;;;;;10.07;100.00;99758.50;4643539;23;20341;-87
2022/10/03 08:46:47;;;;;;;5.93;5.45;;;;;;;9.86;100.00;99758.78;4138493;28;20228;-86
2022/10/03 08:49:04;;;;;;;52.67;6.45;;;;;;;9.74;100.00;99757.75;4143634;28;20211;-87
2022/10/03 08:51:44;;;;;;;71.20;8.65;;;;;;;9.30;100.00;99759.53;4147729;28;20259;-86
2022/10/03 08:54:06;;;;;;;12.52;6.07;;;;;;;9.71;100.00;99762.81;4146050;28;20217;-88
2022/10/03 08:56:20;;;;;;;6.20;5.72;;;;;;;9.65;100.00;99758.19;4146391;28;20241;-88
2022/10/03 08:58:55;;;;;;;7.80;6.82;;;;;;;9.76;100.00;99757.53;4153858;28;20202;-90
2022/10/03 09:01:15;;;;;;;8.80;5.63;;;;;;;9.60;100.00;99760.72;4154520;28;20597;-91
2022/10/03 09:03:46;;;;;;;8.95;6.97;;;;;;;9.65;100.00;99752.72;4136795;28;20324;-89
2022/10/03 09:06:03;;;;;;;9.48;8.13;;;;;;;9.55;100.00;99752.34;4154200;28;20205;-89
2022/10/03 09:08:22;;;;;;;9.60;8.63;;;;;;;9.67;100.00;99761.56;4138303;28;20690;-88
2022/10/03 09:10:55;;;;;;;12.23;9.77;;;;;;;9.94;100.00;99758.53;4136639;28;20224;-87
2022/10/03 09:13:15;;;;;;;10.25;9.45;;;;;;;10.22;100.00;99761.00;4120679;28;20198;-88
2022/10/03 09:15:44;;;;;;;9.23;8.32;;;;;;;10.19;100.00;99761.41;4127614;28;20777;-87
2022/10/03 09:18:08;;;;;;;10.15;9.20;;;;;;;10.51;100.00;99765.88;4131373;28;20262;-87
2022/10/03 09:20:30;;;;;;;8.88;8.07;;;;;;;10.59;100.00;99762.88;4122172;28;20202;-88
2022/10/03 09:22:53;;;;;;;9.18;8.23;;;;;;;10.72;100.00;99771.00;4131202;28;20213;-88
2022/10/03 09:25:19;;;;;;;8.70;7.95;;;;;;;10.91;100.00;99768.16;4141534;28;20232;-87
2022/10/03 09:27:22;;;;;;;9.05;8.35;;;;;;;11.23;100.00;99773.38;4141287;28;20218;-88
2022/10/03 09:29:42;;;;;;;7.80;6.43;;;;;;;11.26;100.00;99774.81;4128518;28;20733;-87
2022/10/03 09:32:37;;;;;;;8.88;8.18;;;;;;;11.32;100.00;99772.00;4124665;28;20207;-84
2022/10/03 09:35:03;;;;;;;9.68;7.00;;;;;;;11.36;100.00;99773.25;4096489;28;20317;-87
2022/10/03 09:37:16;;;;;;;7.18;6.55;;;;;;;11.25;100.00;99771.22;4110996;28;20206;-87
2022/10/03 09:39:45;;;;;;;6.57;5.32;;;;;;;11.35;100.00;99773.47;4132434;28;20227;-88
2022/10/03 09:42:11;;;;;;;8.30;7.10;;;;;;;12.02;100.00;99774.28;4113828;28;20749;-86
2022/10/03 09:44:33;;;;;;;8.15;7.57;;;;;;;13.19;100.00;99775.44;4132147;28;20230;-88
2022/10/03 09:47:21;;;;;;;6.97;6.45;;;;;;;13.12;100.00;99771.97;4114146;28;20262;-84
2022/10/03 09:49:37;;;;;;;7.10;6.68;;;;;;;13.53;100.00;99766.41;4124045;28;20217;-86
2022/10/03 09:51:47;;;;;;;7.15;6.63;;;;;;;13.72;99.07;99764.38;4140752;28;20209;-85
2022/10/03 09:54:09;;;;;;;6.22;5.72;;;;;;;12.87;99.22;99768.50;4121769;28;20287;-85
2022/10/03 09:56:18;;;;;;;6.15;5.70;;;;;;;12.60;100.00;99761.72;4127976;28;20209;-87
2022/10/03 09:58:29;;;;;;;6.85;6.25;;;;;;;13.08;100.00;99765.25;4128402;28;20199;-84
2022/10/03 10:00:33;;;;;;;7.45;6.85;;;;;;;13.30;100.00;99769.13;4128019;28;20212;-86
2022/10/03 10:03:23;;;;;;;6.13;5.63;;;;;;;14.18;100.00;99765.16;4125362;28;20213;-85
2022/10/03 10:05:51;;;;;;;6.47;6.05;;;;;;;14.83;99.52;99760.97;4140020;28;20205;-86
2022/10/03 10:08:31;;;;;;;11.48;4.95;;;;;;;14.75;96.23;99758.63;4124554;28;20657;-85
2022/10/03 10:10:54;;;;;;;5.93;5.03;;;;;;;15.00;92.88;99755.50;4138561;28;20585;-85
2022/10/03 10:12:56;;;;;;;5.53;5.03;;;;;;;15.17;92.38;99750.88;4125263;28;20237;-84
2022/10/03 10:15:17;;;;;;;6.57;5.93;;;;;;;15.53;94.93;99751.25;4127232;28;20218;-85
2022/10/03 10:17:41;;;;;;;6.55;5.95;;;;;;;15.21;94.86;99747.34;4110419;28;20203;-85
2022/10/03 10:19:58;;;;;;;6.60;6.00;;;;;;;15.04;92.36;99746.47;4125196;28;20206;-85
2022/10/03 10:22:14;;;;;;;6.00;5.50;;;;;;;15.01;93.87;99747.00;4123927;28;20249;-85
2022/10/03 10:24:16;;;;;;;5.85;5.22;;;;;;;15.29;94.86;99749.69;4138540;28;20292;-86
2022/10/03 10:26:47;;;;;;;5.13;4.72;;;;;;;15.47;95.77;99749.47;4140058;28;20212;-84
2022/10/03 10:29:12;;;;;;;6.50;6.00;;;;;;;15.38;95.26;99748.25;4125514;28;20246;-84
2022/10/03 10:31:56;;;;;;;5.88;5.43;;;;;;;15.79;94.46;99756.06;4115421;28;20218;-85
2022/10/03 10:34:20;;;;;;;4.28;3.97;;;;;;;16.56;91.89;99757.69;4125593;28;20222;-85
2022/10/03 10:36:43;;;;;;;5.40;3.72;;;;;;;17.16;90.99;99750.03;4141712;28;20253;-85
2022/10/03 10:39:09;;;;;;;4.88;4.00;;;;;;;17.56;88.01;99753.19;4140633;28;20198;-87
2022/10/03 10:41:55;;;;;;;4.43;3.35;;;;;;;17.51;87.70;99750.41;4141440;28;20217;-85
2022/10/03 10:44:17;;;;;;;4.82;3.13;;;;;;;17.53;81.34;99753.72;4126110;28;20276;-86
2022/10/03 10:46:40;;;;;;;4.47;2.20;;;;;;;17.17;81.19;99743.38;4122730;28;20226;-87
2022/10/03 10:49:16;;;;;;;2.75;2.42;;;;;;;17.31;81.87;99744.66;4110032;28;20241;-85
2022/10/03 10:51:28;;;;;;;2.70;2.38;;;;;;;17.24;81.63;99744.00;4134023;28;20209;-86
2022/10/03 10:54:01;;;;;;;5.68;2.70;;;;;;;18.00;85.18;99749.06;4125631;28;20266;-86
2022/10/03 10:56:41;;;;;;;4.72;3.50;;;;;;;18.41;81.66;99742.66;4128513;28;20209;-84
2022/10/03 10:58:47;;;;;;;4.45;2.17;;;;;;;18.48;82.67;99734.94;4140046;28;20282;-86
2022/10/03 11:00:48;;;;;;;4.47;2.30;;;;;;;18.79;80.69;99736.69;4144382;28;20202;-85
2022/10/03 11:03:28;;;;;;;3.63;2.42;;;;;;;18.44;78.14;99728.28;4143268;28;20212;-85
2022/10/03 11:05:51;;;;;;;5.38;2.15;;;;;;;18.90;78.23;99738.38;4140579;28;20197;-85
2022/10/03 11:08:26;;;;;;;5.03;2.58;;;;;;;17.97;77.12;99730.19;4127894;28;20237;-85
2022/10/03 11:10:55;;;;;;;3.15;2.47;;;;;;;18.28;77.68;99723.72;4127444;28;20238;-84
2022/10/03 11:13:40;;;;;;;2.38;1.98;;;;;;;18.28;78.63;99723.72;4127409;28;20202;-85
2022/10/03 11:15:51;;;;;;;4.90;2.15;;;;;;;18.58;76.15;99718.34;4128544;28;20689;-85